createdAt,value
2022-11-16T00:06:20.403Z,77.2
2022-11-16T00:21:29.842Z,77.3
2022-11-16T00:36:39.443Z,77.3
2022-11-16T00:51:49.113Z,77.3
2022-11-16T01:06:59.179Z,77.4
2022-11-16T01:22:08.889Z,77.3
2022-11-16T01:37:18.544Z,77.3
2022-11-16T01:52:28.021Z,77.3
2022-11-16T02:07:38.464Z,77.3
2022-11-16T02:22:48.486Z,77.3
2022-11-16T06:43:52.243Z,71.3
2022-11-16T06:58:37.690Z,76.8
2022-11-16T07:13:47.419Z,77.4
2022-11-16T07:28:57.449Z,77.5
2022-11-16T07:49:25.822Z,77.5
2022-11-16T08:04:37.514Z,77.4
2022-11-16T08:19:48.259Z,77.4
2022-11-16T08:34:58.034Z,77.4
2022-11-16T08:51:25.871Z,77.4
2022-11-16T09:06:36.998Z,77.5
2022-11-16T09:21:46.773Z,77.5
2022-11-16T09:36:58.028Z,77.5
2022-11-16T09:52:08.036Z,77.6
2022-11-16T10:07:18.311Z,77.7
2022-11-16T10:23:18.697Z,77.6
2022-11-16T10:38:30.155Z,78.3
2022-11-16T10:53:39.981Z,78.2
2022-11-16T11:08:53.731Z,78.2
2022-11-16T11:24:46.023Z,78.4
2022-11-16T11:39:59.555Z,78.4
2022-11-16T11:55:09.687Z,78.5
2022-11-16T12:10:19.945Z,78.4
2022-11-16T12:25:32.682Z,78.3
2022-11-16T12:40:42.368Z,78.8
2022-11-16T12:55:52.118Z,78.5
2022-11-16T13:11:02.033Z,78.5
2022-11-16T13:26:12.253Z,78.6
2022-11-16T13:41:22.808Z,78.7
2022-11-16T13:56:33.022Z,78.8
2022-11-16T14:11:43.390Z,78.9
2022-11-16T14:26:53.124Z,79
2022-11-16T14:42:03.332Z,79
2022-11-16T14:57:13.595Z,79
2022-11-16T15:12:23.482Z,79.1
2022-11-16T15:27:33.475Z,79.2
2022-11-16T15:42:43.087Z,79.3
2022-11-16T15:57:55.691Z,79.2
2022-11-16T16:13:05.614Z,79.3
2022-11-16T16:28:15.552Z,79.3
2022-11-16T16:43:25.594Z,79.4
2022-11-16T16:58:36.496Z,79.4
2022-11-16T17:13:47.199Z,79.6
2022-11-16T17:28:58.116Z,79.8
2022-11-16T17:44:07.675Z,79.6
2022-11-16T17:59:18.064Z,79.6
2022-11-16T18:14:28.345Z,79.7
2022-11-16T18:29:38.996Z,79.7
2022-11-16T18:44:49.173Z,79.8
2022-11-16T18:59:59.107Z,79.9
2022-11-16T19:15:09.375Z,79.8
2022-11-16T19:30:19.563Z,79.9
2022-11-16T19:45:29.291Z,79.9
2022-11-16T20:00:39.277Z,79.9
2022-11-16T20:15:49.859Z,79.9
2022-11-16T20:30:59.403Z,79.9
2022-11-16T20:46:09.145Z,79.9
2022-11-16T21:01:19.407Z,80
2022-11-16T21:16:29.589Z,80
2022-11-16T21:31:40.135Z,80.1
2022-11-16T21:46:49.895Z,80.2
2022-11-16T22:01:59.089Z,80.2
2022-11-16T22:17:09.113Z,80.2
2022-11-16T22:32:18.335Z,80.3
2022-11-16T22:47:28.283Z,80.3
2022-11-16T23:02:37.589Z,80.4
2022-11-16T23:17:47.754Z,80.8
2022-11-16T23:32:58.775Z,80.3
2022-11-16T23:48:08.814Z,79.1
